Time;durP1;ratioP1;P1;durP2;ratioP2;P2;SDS_P1;SDS_P2;PMS_P1;PMS_P2;Temp;Humidity;BMP_temperature;BMP_pressure;BME280_temperature;BME280_humidity;BME280_pressure;Samples;Min_cycle;Max_cycle;Signal;HPM_P1;HPM_P2
2021/12/17 00:09:54;;;;;;;29.70;13.07;;;8.00;99.90;;;;;;10345103;28;20828;-61
2021/12/17 00:14:57;;;;;;;32.63;12.63;;;8.00;99.90;;;;;;10343103;28;20066;-60
2021/12/17 00:57:01;;;;;;;26.30;12.32;;;8.00;99.90;;;;;;10340439;28;20081;-60
2021/12/17 01:02:06;;;;;;;23.08;12.30;;;8.00;99.90;;;;;;10346811;28;20049;-60
2021/12/17 01:07:09;;;;;;;22.83;12.30;;;8.00;99.90;;;;;;10345695;28;20135;-59
2021/12/17 01:12:13;;;;;;;28.60;11.45;;;8.00;99.90;;;;;;10330100;28;20380;-60
2021/12/17 01:17:19;;;;;;;25.98;12.85;;;8.00;99.90;;;;;;10343022;28;20575;-60
2021/12/17 01:22:50;;;;;;;28.10;13.02;;;8.00;99.90;;;;;;10341853;28;20116;-59
2021/12/17 01:39:56;;;;;;;27.73;12.48;;;8.10;99.90;;;;;;10173492;29;20055;-61
2021/12/17 01:44:18;;;;;;;28.65;12.27;;;8.10;99.90;;;;;;10316351;28;20050;-60
2021/12/17 01:55:46;;;;;;;22.35;10.52;;;8.10;99.90;;;;;;10339239;28;20071;-61
2021/12/17 02:00:16;;;;;;;27.30;13.07;;;8.10;99.90;;;;;;10337725;28;20539;-61
2021/12/17 02:05:18;;;;;;;28.98;11.43;;;8.00;99.90;;;;;;10342410;28;20105;-61
2021/12/17 02:36:27;;;;;;;18.25;8.75;;;8.10;99.90;;;;;;10355187;28;20504;-61
2021/12/17 02:46:49;;;;;;;25.60;9.50;;;8.20;99.90;;;;;;10355483;28;20073;-61
2021/12/17 02:51:52;;;;;;;24.65;9.25;;;8.20;99.90;;;;;;10351375;28;20107;-61
2021/12/17 02:56:53;;;;;;;17.50;8.85;;;8.20;99.90;;;;;;10347926;28;20061;-61
2021/12/17 03:01:56;;;;;;;19.42;8.82;;;8.20;99.90;;;;;;10353251;28;20045;-60
2021/12/17 03:06:58;;;;;;;18.33;8.05;;;8.20;99.90;;;;;;10352064;28;20132;-61
2021/12/17 03:12:00;;;;;;;20.13;8.82;;;8.20;99.90;;;;;;10354433;28;20124;-61
2021/12/17 03:17:09;;;;;;;21.42;9.77;;;8.20;99.90;;;;;;10327920;28;20045;-60
2021/12/17 03:27:31;;;;;;;21.90;10.25;;;8.10;99.90;;;;;;10345504;28;20667;-61
2021/12/17 03:32:33;;;;;;;19.90;9.77;;;8.10;99.90;;;;;;10353618;28;20050;-60
2021/12/17 03:37:35;;;;;;;19.80;10.95;;;8.10;99.90;;;;;;10373557;23;20067;-91
2021/12/17 03:42:37;;;;;;;19.15;9.05;;;8.00;99.90;;;;;;10425758;28;20049;-91
2021/12/17 03:47:39;;;;;;;24.23;10.15;;;7.90;99.90;;;;;;10407178;28;20124;-91
2021/12/17 03:52:40;;;;;;;21.70;9.30;;;7.90;99.90;;;;;;10407562;28;20053;-91
2021/12/17 03:57:42;;;;;;;63.83;19.13;;;7.80;99.90;;;;;;10399229;28;20138;-91
2021/12/17 04:02:45;;;;;;;68.63;21.52;;;7.80;99.90;;;;;;10410930;28;20048;-91
2021/12/17 04:07:47;;;;;;;68.63;21.55;;;7.80;99.90;;;;;;10427801;28;20044;-91
2021/12/17 04:17:55;;;;;;;25.15;10.65;;;7.80;99.90;;;;;;10431945;28;20049;-91
2021/12/17 04:22:58;;;;;;;25.20;10.68;;;7.80;99.90;;;;;;10412921;28;20041;-89
2021/12/17 04:28:00;;;;;;;25.92;9.95;;;7.80;99.90;;;;;;10422664;28;20056;-90
2021/12/17 04:33:02;;;;;;;22.70;10.30;;;7.80;99.90;;;;;;10401196;28;20053;-91
2021/12/17 04:38:06;;;;;;;20.63;10.13;;;7.80;99.90;;;;;;10411475;28;20372;-91
2021/12/17 04:58:58;;;;;;;19.40;8.63;;;7.80;99.90;;;;;;10435010;28;20702;-91
2021/12/17 05:04:00;;;;;;;17.98;9.02;;;7.70;99.90;;;;;;10420937;28;20044;-91
2021/12/17 05:09:12;;;;;;;23.25;9.75;;;7.70;99.90;;;;;;10420356;28;20102;-91
2021/12/17 05:24:43;;;;;;;22.25;8.40;;;7.70;99.90;;;;;;10446679;28;20613;-91
2021/12/17 05:29:46;;;;;;;15.32;7.55;;;7.60;99.90;;;;;;10424303;28;20080;-91
2021/12/17 05:34:47;;;;;;;11.43;5.10;;;7.60;99.90;;;;;;10428861;28;20462;-91
2021/12/17 05:39:49;;;;;;;8.60;4.45;;;7.60;99.90;;;;;;10415333;28;20144;-91
2021/12/17 05:44:56;;;;;;;10.68;4.97;;;7.60;99.90;;;;;;10424981;28;20049;-91
2021/12/17 05:49:57;;;;;;;9.70;4.47;;;7.70;99.90;;;;;;10417428;28;20065;-90
2021/12/17 05:54:59;;;;;;;9.10;4.88;;;7.80;99.90;;;;;;10418348;28;20063;-91
2021/12/17 06:00:02;;;;;;;8.93;4.38;;;7.80;99.90;;;;;;10407333;28;20052;-91
2021/12/17 06:05:04;;;;;;;9.23;4.82;;;7.80;99.90;;;;;;10409935;28;20137;-90
2021/12/17 06:10:09;;;;;;;9.50;5.10;;;7.90;99.90;;;;;;10404795;28;20123;-90
2021/12/17 06:15:14;;;;;;;10.32;4.80;;;7.90;99.90;;;;;;10413474;28;20071;-90
2021/12/17 06:20:19;;;;;;;7.60;4.25;;;7.90;99.90;;;;;;10404384;28;20480;-90
2021/12/17 06:25:21;;;;;;;10.13;4.07;;;8.00;99.90;;;;;;10419262;28;20045;-89
2021/12/17 06:30:23;;;;;;;11.15;5.13;;;8.00;99.90;;;;;;10410838;28;20128;-89
2021/12/17 06:35:25;;;;;;;7.95;4.80;;;8.00;99.90;;;;;;10390767;28;20057;-90
2021/12/17 06:40:30;;;;;;;9.55;4.80;;;8.00;99.90;;;;;;10420963;28;20060;-90
2021/12/17 06:45:53;;;;;;;9.98;4.20;;;8.00;99.90;;;;;;10404048;28;20059;-89
2021/12/17 06:57:05;;;;;;;13.43;5.60;;;8.00;99.90;;;;;;10434033;28;20139;-90
2021/12/17 07:30:32;;;;;;;9.25;4.85;;;8.00;99.90;;;;;;10153446;28;20057;-91
2021/12/17 07:40:53;;;;;;;11.32;5.10;;;8.00;99.90;;;;;;10203639;28;20049;-90
2021/12/17 07:45:56;;;;;;;15.50;5.45;;;8.00;99.90;;;;;;10298099;28;20089;-90
2021/12/17 07:51:02;;;;;;;10.07;4.40;;;8.00;99.90;;;;;;10303315;28;20084;-90
2021/12/17 07:56:07;;;;;;;13.32;5.10;;;8.00;99.90;;;;;;10334518;28;20045;-90
2021/12/17 08:01:10;;;;;;;13.48;5.75;;;8.10;99.90;;;;;;10436445;28;20067;-90
2021/12/17 08:06:13;;;;;;;15.07;5.13;;;8.10;99.90;;;;;;10413934;28;20128;-90
2021/12/17 08:11:15;;;;;;;10.13;5.00;;;8.10;99.90;;;;;;10406258;28;20045;-90
2021/12/17 08:16:31;;;;;;;10.45;5.03;;;8.10;99.90;;;;;;10397501;28;20056;-89
2021/12/17 08:32:06;;;;;;;12.85;4.82;;;8.20;99.90;;;;;;10377444;28;20129;-90
2021/12/17 08:37:08;;;;;;;10.57;4.78;;;8.30;99.90;;;;;;10419378;28;20712;-90
2021/12/17 08:42:09;;;;;;;15.25;6.30;;;8.30;99.90;;;;;;10414338;28;20064;-90
2021/12/17 08:47:11;;;;;;;10.48;5.22;;;8.30;99.90;;;;;;10382385;28;20107;-90
2021/12/17 08:52:13;;;;;;;11.10;5.28;;;8.30;99.90;;;;;;10405411;28;20052;-90
2021/12/17 08:57:34;;;;;;;12.05;5.68;;;8.40;99.90;;;;;;10338467;28;20049;-90
2021/12/17 09:02:59;;;;;;;10.63;4.78;;;8.40;99.90;;;;;;10206850;28;20062;-90
2021/12/17 09:08:02;;;;;;;13.27;6.32;;;8.40;99.90;;;;;;10366279;28;20095;-90
2021/12/17 09:13:07;;;;;;;10.55;5.68;;;8.40;99.90;;;;;;10396405;28;20128;-90
2021/12/17 09:18:09;;;;;;;9.32;4.70;;;8.60;99.90;;;;;;10377628;28;20406;-90
2021/12/17 09:23:11;;;;;;;13.52;5.20;;;8.60;99.90;;;;;;10392305;28;20493;-90
2021/12/17 09:28:15;;;;;;;9.85;4.90;;;8.70;99.90;;;;;;10413082;28;20037;-90
2021/12/17 09:33:17;;;;;;;10.77;4.90;;;8.70;99.90;;;;;;10400399;28;20122;-90
2021/12/17 09:38:20;;;;;;;11.18;4.70;;;8.70;99.90;;;;;;10402346;28;20067;-90
2021/12/17 09:43:22;;;;;;;7.18;3.58;;;8.70;99.90;;;;;;10401765;28;20502;-90
2021/12/17 09:48:24;;;;;;;7.43;3.92;;;8.90;99.90;;;;;;10417803;28;20458;-90
2021/12/17 09:53:26;;;;;;;7.05;2.83;;;8.90;99.90;;;;;;10392011;28;20059;-90
2021/12/17 09:58:29;;;;;;;9.55;3.92;;;8.90;99.90;;;;;;10406089;28;20565;-90
2021/12/17 10:03:31;;;;;;;7.05;3.15;;;9.00;99.90;;;;;;10371368;28;20051;-90
2021/12/17 10:08:46;;;;;;;7.95;3.28;;;8.90;99.20;;;;;;10406062;28;20490;-90
2021/12/17 10:13:48;;;;;;;6.55;2.83;;;9.00;98.50;;;;;;10412098;28;20558;-90
2021/12/17 10:18:50;;;;;;;6.90;3.00;;;9.00;98.30;;;;;;10417506;28;20057;-90
2021/12/17 10:23:55;;;;;;;4.13;2.17;;;9.00;97.70;;;;;;10393552;28;20061;-90
2021/12/17 10:29:04;;;;;;;6.30;2.30;;;9.00;96.50;;;;;;10380967;28;20052;-90
2021/12/17 10:34:06;;;;;;;4.78;2.25;;;9.10;97.30;;;;;;10400422;28;20104;-90
2021/12/17 10:45:44;;;;;;;5.65;1.95;;;9.20;97.30;;;;;;10390765;28;20044;-90
2021/12/17 10:50:48;;;;;;;6.15;2.08;;;9.40;97.90;;;;;;10414348;28;20053;-90
2021/12/17 10:55:52;;;;;;;5.30;2.42;;;9.40;96.90;;;;;;10406209;28;20066;-90
2021/12/17 11:01:02;;;;;;;4.65;2.25;;;9.50;97.30;;;;;;10429647;28;20519;-90
2021/12/17 11:06:03;;;;;;;3.15;1.30;;;9.50;96.30;;;;;;10417561;28;20125;-90
2021/12/17 11:11:10;;;;;;;3.72;1.25;;;9.40;96.50;;;;;;10393768;28;20084;-90
2021/12/17 11:16:12;;;;;;;6.60;2.07;;;9.50;98.30;;;;;;10395467;28;20044;-90
2021/12/17 11:21:14;;;;;;;4.72;1.77;;;9.50;99.00;;;;;;10415965;28;20048;-90
2021/12/17 11:26:16;;;;;;;4.57;2.08;;;9.50;99.50;;;;;;10388527;28;20049;-90
2021/12/17 11:31:18;;;;;;;4.28;1.35;;;9.60;99.20;;;;;;10451735;28;20554;-90
2021/12/17 11:36:20;;;;;;;3.35;1.42;;;9.60;99.60;;;;;;10403151;28;20048;-90
2021/12/17 11:41:52;;;;;;;5.45;2.28;;;9.60;99.20;;;;;;10416852;28;20415;-90
2021/12/17 11:47:12;;;;;;;7.30;2.30;;;9.60;99.90;;;;;;10390525;28;20124;-90
2021/12/17 11:52:14;;;;;;;18.23;5.07;;;9.60;99.80;;;;;;10413615;28;20052;-90
2021/12/17 11:57:18;;;;;;;5.20;2.25;;;9.50;99.80;;;;;;10411017;28;20048;-91
2021/12/17 12:02:22;;;;;;;9.50;2.88;;;9.60;99.90;;;;;;10396085;28;20088;-91
2021/12/17 12:07:24;;;;;;;7.70;2.03;;;9.70;99.90;;;;;;10396424;28;20813;-91
2021/12/17 12:12:28;;;;;;;3.63;1.65;;;9.60;99.90;;;;;;10431153;28;20410;-91
2021/12/17 12:17:58;;;;;;;6.05;2.28;;;9.70;99.90;;;;;;10433114;28;20513;-91
2021/12/17 12:23:29;;;;;;;5.88;1.98;;;9.80;99.90;;;;;;10417738;28;20049;-91
2021/12/17 12:28:47;;;;;;;4.20;2.15;;;9.80;99.40;;;;;;10419735;28;20137;-91
2021/12/17 12:34:00;;;;;;;7.55;2.08;;;9.90;99.40;;;;;;10365390;28;20041;-91
2021/12/17 12:39:27;;;;;;;7.20;2.20;;;9.80;99.30;;;;;;10391970;28;20061;-91
2021/12/17 12:45:05;;;;;;;7.82;3.13;;;9.80;99.40;;;;;;10077251;28;20855;-90
2021/12/17 12:50:13;;;;;;;9.65;2.65;;;9.80;99.40;;;;;;10376989;28;20077;-90
2021/12/17 12:55:34;;;;;;;8.98;2.42;;;9.90;99.30;;;;;;10245075;28;20049;-90
2021/12/17 13:00:57;;;;;;;8.07;2.50;;;9.90;99.10;;;;;;10313085;28;20053;-90
2021/12/17 13:06:00;;;;;;;7.03;2.63;;;10.00;99.20;;;;;;10305749;28;20052;-90
2021/12/17 13:11:08;;;;;;;5.47;1.80;;;9.90;99.30;;;;;;10198170;28;20651;-90
2021/12/17 13:16:22;;;;;;;6.15;2.35;;;9.90;99.90;;;;;;10159843;28;20106;-90
2021/12/17 13:21:44;;;;;;;5.33;2.13;;;9.80;99.90;;;;;;10208134;28;20532;-90
2021/12/17 13:26:55;;;;;;;5.60;2.30;;;9.70;99.90;;;;;;10223637;28;20099;-89
2021/12/17 13:32:04;;;;;;;7.38;2.40;;;9.70;99.90;;;;;;10317317;28;20049;-89
2021/12/17 13:37:18;;;;;;;6.22;2.40;;;9.60;99.90;;;;;;10325586;28;20105;-90
2021/12/17 13:42:30;;;;;;;6.60;2.53;;;9.50;99.90;;;;;;10336455;28;20120;-90
2021/12/17 13:48:01;;;;;;;9.07;2.55;;;9.50;99.90;;;;;;10243912;28;20042;-89
2021/12/17 13:53:15;;;;;;;6.45;2.78;;;9.50;99.90;;;;;;10195559;28;20050;-90
2021/12/17 13:58:39;;;;;;;11.73;3.80;;;9.50;99.90;;;;;;10306311;28;20057;-90
2021/12/17 14:03:42;;;;;;;12.07;3.38;;;9.50;99.90;;;;;;10147260;28;20229;-89
2021/12/17 14:08:48;;;;;;;9.23;3.63;;;9.40;99.90;;;;;;10219455;28;20053;-90
2021/12/17 14:13:50;;;;;;;9.82;3.47;;;9.40;99.90;;;;;;10246020;28;20052;-90
2021/12/17 14:18:57;;;;;;;7.00;3.20;;;9.40;99.90;;;;;;10293659;28;20115;-90
2021/12/17 14:24:03;;;;;;;9.10;3.63;;;9.40;99.90;;;;;;10332519;28;20053;-89
2021/12/17 14:29:12;;;;;;;13.00;3.58;;;9.30;99.90;;;;;;10357441;28;20045;-90
2021/12/17 14:34:17;;;;;;;10.23;3.42;;;9.20;99.90;;;;;;10364514;28;20057;-90
2021/12/17 14:39:22;;;;;;;12.13;4.22;;;9.00;99.90;;;;;;10384201;28;20060;-89
2021/12/17 15:05:25;;;;;;;9.98;4.00;;;8.80;99.90;;;;;;10431778;28;20128;-90
2021/12/17 15:10:31;;;;;;;10.23;3.90;;;8.70;99.90;;;;;;10397723;28;20037;-89
2021/12/17 15:15:37;;;;;;;9.15;3.55;;;8.70;99.90;;;;;;10416074;28;20394;-90
2021/12/17 15:21:02;;;;;;;10.68;4.35;;;8.70;99.90;;;;;;10361640;28;20101;-90
2021/12/17 15:26:12;;;;;;;9.68;4.28;;;8.70;99.90;;;;;;10409386;28;20060;-90
2021/12/17 15:31:14;;;;;;;12.40;4.25;;;8.70;99.90;;;;;;10410080;28;20499;-90
2021/12/17 15:36:16;;;;;;;8.32;3.45;;;8.70;99.90;;;;;;10407733;28;20045;-90
2021/12/17 15:41:19;;;;;;;12.07;3.80;;;8.60;99.90;;;;;;10409837;28;20061;-89
2021/12/17 15:46:23;;;;;;;15.43;3.85;;;8.60;99.90;;;;;;10417642;28;20377;-90
2021/12/17 15:51:25;;;;;;;9.38;4.38;;;8.60;99.90;;;;;;10429328;28;20067;-90
2021/12/17 15:56:26;;;;;;;11.80;5.00;;;8.60;99.90;;;;;;10412443;28;20138;-88
2021/12/17 16:01:29;;;;;;;14.35;4.80;;;8.60;99.90;;;;;;10436856;28;20053;-88
2021/12/17 16:06:31;;;;;;;11.18;3.92;;;8.50;99.90;;;;;;10421842;28;20069;-88
2021/12/17 16:11:52;;;;;;;11.43;4.07;;;8.50;99.90;;;;;;10418049;28;20405;-89
2021/12/17 16:22:01;;;;;;;;;;;8.30;99.90;;;;;;10418495;28;20053;-88
2021/12/17 16:27:03;;;;;;;10.00;4.70;;;8.30;99.90;;;;;;10434798;28;19921;-88
2021/12/17 16:32:06;;;;;;;13.52;5.53;;;8.30;99.90;;;;;;10440594;28;20057;-89
2021/12/17 16:37:09;;;;;;;12.15;4.32;;;8.20;99.90;;;;;;10441567;28;20110;-89
2021/12/17 16:42:16;;;;;;;16.05;5.07;;;8.30;99.90;;;;;;10441097;28;20049;-89
2021/12/17 16:47:29;;;;;;;12.95;5.03;;;8.20;99.90;;;;;;10444378;28;22781;-90
2021/12/17 16:52:31;;;;;;;14.95;5.03;;;8.20;99.90;;;;;;10343401;28;20077;-92
2021/12/17 16:57:39;;;;;;;14.70;5.45;;;8.20;99.90;;;;;;10335595;28;20122;-90
2021/12/17 17:02:44;;;;;;;10.02;5.28;;;8.20;99.90;;;;;;10436858;28;20123;-90
2021/12/17 17:07:46;;;;;;;12.95;4.75;;;8.20;99.90;;;;;;10433922;28;20060;-90
2021/12/17 17:12:50;;;;;;;12.88;4.55;;;8.20;99.90;;;;;;10437308;28;20087;-90
2021/12/17 17:17:53;;;;;;;14.05;4.45;;;8.10;99.90;;;;;;10433587;28;20076;-90
2021/12/17 17:22:55;;;;;;;16.05;5.05;;;8.10;99.90;;;;;;10415956;28;20037;-90
2021/12/17 17:27:57;;;;;;;13.43;5.50;;;8.00;99.90;;;;;;10422938;28;20208;-90
2021/12/17 17:33:05;;;;;;;11.67;5.87;;;8.00;99.90;;;;;;10426918;28;20057;-90
2021/12/17 17:38:07;;;;;;;14.77;5.50;;;8.00;99.90;;;;;;10418631;28;20059;-91
2021/12/17 17:43:11;;;;;;;11.75;4.38;;;8.00;99.90;;;;;;10414700;28;20841;-90
2021/12/17 17:48:15;;;;;;;47.40;22.10;;;8.00;99.90;;;;;;10438373;28;20049;-90
2021/12/17 17:53:17;;;;;;;21.58;8.15;;;8.00;99.90;;;;;;10407502;28;20041;-91
2021/12/17 17:58:19;;;;;;;9.88;3.88;;;7.90;99.90;;;;;;10399215;28;20115;-90
2021/12/17 18:03:21;;;;;;;7.80;2.67;;;7.90;99.90;;;;;;10423503;28;20120;-90
2021/12/17 18:08:23;;;;;;;10.18;4.70;;;7.80;99.90;;;;;;10410268;28;20095;-90
2021/12/17 18:13:29;;;;;;;12.43;2.95;;;7.70;99.90;;;;;;10410075;28;20052;-90
2021/12/17 18:18:35;;;;;;;7.28;2.35;;;7.50;99.90;;;;;;10417808;28;20051;-90
2021/12/17 18:23:37;;;;;;;6.55;2.55;;;7.40;99.90;;;;;;10404850;28;20045;-91
2021/12/17 18:28:38;;;;;;;8.07;3.55;;;7.20;99.90;;;;;;10417167;28;20484;-90
2021/12/17 18:33:40;;;;;;;8.63;3.42;;;7.10;99.90;;;;;;10414469;28;20037;-90
2021/12/17 18:38:45;;;;;;;10.55;3.65;;;6.90;99.90;;;;;;10366895;28;20060;-91
2021/12/17 18:44:06;;;;;;;7.55;3.70;;;6.70;99.90;;;;;;10399778;28;20049;-91
2021/12/17 18:49:11;;;;;;;13.63;5.60;;;6.60;99.90;;;;;;10425705;28;20135;-90
2021/12/17 18:54:13;;;;;;;13.00;5.57;;;6.50;99.90;;;;;;10401128;28;20559;-90
2021/12/17 18:59:16;;;;;;;12.02;4.90;;;6.40;99.90;;;;;;10415053;28;20123;-91
2021/12/17 19:04:18;;;;;;;24.42;9.85;;;6.30;99.90;;;;;;10382258;28;20112;-90
2021/12/17 19:09:23;;;;;;;40.67;16.42;;;6.20;99.90;;;;;;10317770;28;20044;-90
2021/12/17 19:14:29;;;;;;;40.55;17.63;;;6.20;99.90;;;;;;10392956;28;20550;-90
2021/12/17 19:19:41;;;;;;;36.78;16.95;;;6.20;99.90;;;;;;10409426;28;20052;-90
2021/12/17 19:24:43;;;;;;;28.27;12.60;;;6.20;99.90;;;;;;10415509;28;20057;-90
2021/12/17 19:29:48;;;;;;;19.05;8.68;;;6.20;99.90;;;;;;10422346;28;23200;-89
2021/12/17 19:34:51;;;;;;;16.63;7.45;;;6.10;99.90;;;;;;10437638;28;20051;-90
2021/12/17 19:39:53;;;;;;;17.13;7.80;;;6.00;99.90;;;;;;10421851;28;20044;-90
2021/12/17 19:44:58;;;;;;;22.98;9.98;;;5.90;99.90;;;;;;10368925;28;20049;-90
2021/12/17 19:50:03;;;;;;;32.95;13.80;;;5.80;99.90;;;;;;10390704;28;20059;-90
2021/12/17 19:55:11;;;;;;;36.63;13.98;;;5.70;99.90;;;;;;10402403;28;20040;-90
2021/12/17 20:00:15;;;;;;;21.52;8.32;;;5.50;99.90;;;;;;10395158;28;20400;-90
2021/12/17 20:05:21;;;;;;;16.75;6.85;;;5.50;99.90;;;;;;10409569;28;20495;-90
2021/12/17 20:10:23;;;;;;;16.70;7.90;;;5.40;99.90;;;;;;10391554;28;20049;-90
2021/12/17 20:15:26;;;;;;;12.40;5.97;;;5.30;99.90;;;;;;10408731;28;20616;-90
2021/12/17 20:20:46;;;;;;;11.63;5.32;;;5.30;99.90;;;;;;10420659;28;20048;-90
2021/12/17 20:25:51;;;;;;;8.00;4.38;;;5.10;99.90;;;;;;10418174;28;20128;-89
2021/12/17 20:30:53;;;;;;;17.20;8.02;;;5.10;99.90;;;;;;10394573;28;20108;-90
2021/12/17 20:35:56;;;;;;;13.05;4.68;;;5.00;99.90;;;;;;10439686;28;20040;-90
2021/12/17 20:41:09;;;;;;;10.48;4.75;;;4.90;99.90;;;;;;10401848;28;20049;-90
2021/12/17 20:46:21;;;;;;;10.25;4.78;;;4.80;99.90;;;;;;10397669;28;20048;-91
2021/12/17 20:52:15;;;;;;;8.80;3.95;;;4.70;99.90;;;;;;10196511;28;20033;-91
2021/12/17 20:57:39;;;;;;;;;;;4.60;99.90;;;;;;10054773;28;20136;-91
2021/12/17 21:03:12;;;;;;;9.30;4.30;;;4.50;99.90;;;;;;10335136;28;19925;-92
2021/12/17 21:08:57;;;;;;;8.63;4.18;;;4.50;99.90;;;;;;10196890;28;20726;-90
2021/12/17 21:14:56;;;;;;;9.93;4.63;;;4.40;99.90;;;;;;10186510;28;20081;-91
2021/12/17 21:20:53;;;;;;;19.61;8.90;;;4.30;99.90;;;;;;9442065;28;5314978;-90
2021/12/17 21:27:06;;;;;;;14.27;6.40;;;4.20;99.90;;;;;;10094626;28;20032;-91
2021/12/17 21:32:09;;;;;;;7.30;4.70;;;4.10;99.90;;;;;;10178871;28;20054;-92
2021/12/17 21:37:25;;;;;;;15.52;6.75;;;3.90;99.90;;;;;;10216801;28;20176;-91
2021/12/17 21:43:41;;;;;;;21.40;8.05;;;3.90;99.90;;;;;;10027922;28;20050;-90
2021/12/17 21:48:54;;;;;;;22.50;8.35;;;3.80;99.90;;;;;;10277036;28;20058;-92
2021/12/17 21:54:00;;;;;;;8.80;3.63;;;3.80;99.90;;;;;;10226841;28;20056;-91
2021/12/17 21:59:03;;;;;;;11.45;4.45;;;3.70;99.90;;;;;;10352927;28;20077;-91
2021/12/17 22:04:11;;;;;;;8.35;4.03;;;3.60;99.90;;;;;;10401438;28;20052;-92
2021/12/17 22:10:10;;;;;;;13.27;3.55;;;3.50;99.90;;;;;;10344385;28;20610;-92
2021/12/17 22:15:20;;;;;;;8.32;3.38;;;3.50;99.90;;;;;;10380589;28;20041;-91
2021/12/17 22:20:33;;;;;;;6.20;2.38;;;3.50;99.90;;;;;;10378385;28;20056;-91
2021/12/17 22:25:36;;;;;;;8.15;3.45;;;3.40;99.90;;;;;;10350649;28;20055;-92
2021/12/17 22:30:40;;;;;;;7.25;2.92;;;3.40;99.90;;;;;;10396139;28;20053;-92
2021/12/17 22:35:56;;;;;;;7.85;3.55;;;3.30;99.90;;;;;;10380651;28;20041;-92
2021/12/17 22:41:12;;;;;;;10.15;4.22;;;3.30;99.90;;;;;;10379120;28;20064;-91
2021/12/17 22:46:17;;;;;;;34.63;12.98;;;3.30;99.90;;;;;;10381324;28;20163;-92
2021/12/17 22:51:28;;;;;;;25.45;11.07;;;3.20;99.90;;;;;;10379863;28;20495;-92
2021/12/17 23:00:48;;;;;;;13.93;6.10;;;3.10;99.90;;;;;;10519570;27;20357;-61
2021/12/17 23:05:50;;;;;;;14.55;5.70;;;3.00;99.90;;;;;;10483548;28;20360;-61
2021/12/17 23:10:55;;;;;;;7.80;3.53;;;2.90;99.90;;;;;;10493996;28;20093;-62
2021/12/17 23:15:56;;;;;;;13.35;4.63;;;2.90;99.90;;;;;;10497288;28;20044;-61
2021/12/17 23:20:58;;;;;;;8.60;3.78;;;2.80;99.90;;;;;;10539656;28;20482;-61
2021/12/17 23:25:59;;;;;;;9.65;4.20;;;2.80;99.90;;;;;;10538508;28;20082;-61
2021/12/17 23:31:02;;;;;;;10.65;5.55;;;2.70;99.90;;;;;;10537288;28;20120;-61
2021/12/17 23:36:06;;;;;;;12.23;5.18;;;2.60;99.90;;;;;;10505953;28;20123;-61
2021/12/17 23:41:09;;;;;;;9.98;3.72;;;2.60;99.90;;;;;;10533978;28;20056;-61
2021/12/17 23:46:11;;;;;;;7.63;4.43;;;2.50;99.90;;;;;;10537184;28;20079;-61
2021/12/17 23:51:12;;;;;;;11.18;4.47;;;2.50;99.90;;;;;;10531617;28;20071;-61
2021/12/17 23:56:14;;;;;;;14.55;4.20;;;2.50;99.90;;;;;;10533379;28;20052;-61
